Time;durP1;ratioP1;P1;durP2;ratioP2;P2;SDS_P1;SDS_P2;PMS_P1;PMS_P2;Temp;Humidity;BMP_temperature;BMP_pressure;BME280_temperature;BME280_humidity;BME280_pressure;Samples;Min_cycle;Max_cycle;Signal;HPM_P1;HPM_P2
2022/04/26 03:38:25;;;;;;;4.28;3.87;;;5.80;99.90;;;;;;622534;231;26645;-70
2022/04/26 03:40:52;;;;;;;4.82;4.10;;;5.80;99.90;;;;;;621393;231;27258;-68
2022/04/26 03:43:19;;;;;;;4.32;3.28;;;5.90;99.90;;;;;;619241;231;26587;-68
2022/04/26 03:45:46;;;;;;;4.25;3.85;;;5.90;99.90;;;;;;619719;229;26631;-68
2022/04/26 03:48:14;;;;;;;4.70;4.30;;;5.80;99.90;;;;;;613756;232;26650;-68
2022/04/26 03:50:42;;;;;;;3.85;3.55;;;5.90;99.90;;;;;;614958;233;26555;-68
2022/04/26 03:53:09;;;;;;;4.97;4.15;;;5.80;99.90;;;;;;622351;230;26858;-69
2022/04/26 03:55:37;;;;;;;3.70;3.40;;;5.80;99.90;;;;;;622590;230;26625;-69
2022/04/26 03:58:04;;;;;;;4.10;3.47;;;5.90;99.90;;;;;;614745;231;26848;-69
2022/04/26 04:00:31;;;;;;;3.60;3.30;;;6.00;99.90;;;;;;619117;231;26598;-69
2022/04/26 04:03:00;;;;;;;3.95;3.50;;;6.00;99.90;;;;;;622557;230;26853;-69
2022/04/26 04:05:26;;;;;;;3.47;3.15;;;6.00;99.90;;;;;;624039;230;26562;-69
2022/04/26 04:07:53;;;;;;;3.78;3.47;;;6.00;99.90;;;;;;619493;230;26569;-67
2022/04/26 04:10:21;;;;;;;4.22;3.87;;;6.00;99.90;;;;;;612800;233;26573;-68
2022/04/26 04:12:48;;;;;;;4.40;4.00;;;6.00;99.90;;;;;;612732;233;26581;-68
2022/04/26 04:15:16;;;;;;;4.15;3.70;;;6.10;99.90;;;;;;615080;233;26641;-68
2022/04/26 04:17:43;;;;;;;4.37;3.97;;;6.10;99.90;;;;;;613100;230;27239;-75
2022/04/26 04:20:11;;;;;;;4.82;4.32;;;6.20;99.90;;;;;;620752;231;26569;-68
2022/04/26 04:22:38;;;;;;;8.70;4.57;;;6.30;99.90;;;;;;619831;231;26810;-70
2022/04/26 04:25:05;;;;;;;130.98;25.23;;;6.30;99.90;;;;;;620473;231;26567;-69
2022/04/26 04:27:32;;;;;;;132.68;26.62;;;6.40;99.90;;;;;;621071;231;26655;-69
2022/04/26 04:30:02;;;;;;;110.72;26.17;;;6.50;99.90;;;;;;621087;231;26624;-69
2022/04/26 04:32:29;;;;;;;127.60;27.25;;;6.60;99.90;;;;;;619665;231;26541;-71
2022/04/26 04:34:56;;;;;;;124.72;26.95;;;6.60;99.90;;;;;;614019;234;26545;-71
2022/04/26 04:37:24;;;;;;;109.20;24.42;;;6.70;99.30;;;;;;618811;231;26562;-70
2022/04/26 04:39:52;;;;;;;108.20;23.25;;;6.80;99.90;;;;;;615647;231;26579;-67
2022/04/26 04:42:21;;;;;;;79.93;21.70;;;6.80;99.90;;;;;;614513;233;26555;-67
2022/04/26 04:44:46;;;;;;;88.15;21.65;;;6.90;99.50;;;;;;612741;234;26581;-69
2022/04/26 04:47:14;;;;;;;71.25;18.95;;;7.00;99.90;;;;;;613055;228;26609;-68
2022/04/26 04:49:41;;;;;;;73.50;16.50;;;7.00;99.90;;;;;;626279;230;26590;-67
2022/04/26 04:52:09;;;;;;;53.95;15.63;;;7.00;98.90;;;;;;617175;230;26597;-68
2022/04/26 04:54:36;;;;;;;58.92;16.00;;;7.10;98.20;;;;;;619120;231;26563;-68
2022/04/26 04:57:03;;;;;;;52.35;14.48;;;7.30;99.20;;;;;;621570;230;26644;-69
2022/04/26 04:59:30;;;;;;;45.20;13.20;;;7.40;96.90;;;;;;622047;230;26625;-69
2022/04/26 05:01:57;;;;;;;39.33;13.50;;;7.20;96.90;;;;;;624888;230;26564;-68
2022/04/26 05:04:25;;;;;;;37.30;11.88;;;7.50;99.20;;;;;;615257;230;26833;-69
2022/04/26 05:06:52;;;;;;;34.78;11.30;;;7.60;97.80;;;;;;614214;230;26586;-69
2022/04/26 05:09:20;;;;;;;42.72;11.75;;;7.70;97.90;;;;;;613127;231;26919;-70
2022/04/26 05:11:48;;;;;;;31.02;10.27;;;7.70;96.20;;;;;;613048;233;26977;-69
2022/04/26 05:14:16;;;;;;;21.70;9.15;;;7.70;96.00;;;;;;613600;231;26851;-69
2022/04/26 05:16:43;;;;;;;24.37;8.27;;;7.80;96.10;;;;;;619708;230;27233;-70
2022/04/26 05:19:10;;;;;;;25.17;9.18;;;8.00;95.40;;;;;;621946;230;26571;-71
2022/04/26 05:21:38;;;;;;;22.30;7.65;;;8.10;95.70;;;;;;623196;230;27166;-70
2022/04/26 05:26:38;;;;;;;9.25;5.10;;;8.20;94.80;;;;;;615840;228;26883;-68
2022/04/26 05:29:06;;;;;;;7.35;4.37;;;8.20;93.30;;;;;;615950;233;26604;-67
2022/04/26 05:31:34;;;;;;;7.85;4.80;;;8.30;92.80;;;;;;615912;232;26598;-67
2022/04/26 05:34:02;;;;;;;6.53;3.75;;;8.20;92.70;;;;;;615598;233;26593;-68
2022/04/26 05:36:30;;;;;;;9.10;4.60;;;8.30;93.40;;;;;;615452;234;26569;-69
2022/04/26 05:38:59;;;;;;;8.25;4.15;;;8.30;94.10;;;;;;615501;234;26568;-68
2022/04/26 05:41:25;;;;;;;6.18;4.47;;;8.30;94.20;;;;;;615511;234;26542;-68
2022/04/26 05:43:52;;;;;;;7.37;4.50;;;8.40;94.00;;;;;;615623;234;26558;-68
2022/04/26 05:46:19;;;;;;;6.20;4.30;;;8.40;94.00;;;;;;615618;233;26975;-68
2022/04/26 05:48:46;;;;;;;8.23;3.95;;;8.50;94.50;;;;;;615618;233;26557;-68
2022/04/26 05:51:13;;;;;;;8.05;4.22;;;8.60;95.40;;;;;;615640;233;26815;-67
2022/04/26 05:53:41;;;;;;;5.95;3.85;;;8.90;93.90;;;;;;615603;233;26568;-67
2022/04/26 05:56:12;;;;;;;4.82;3.55;;;9.00;93.60;;;;;;615605;234;26580;-67
2022/04/26 05:58:38;;;;;;;4.32;3.62;;;9.10;91.80;;;;;;615505;234;26561;-68
2022/04/26 06:01:05;;;;;;;3.95;3.10;;;9.00;91.70;;;;;;615602;233;26537;-68
2022/04/26 06:03:33;;;;;;;3.33;2.92;;;9.10;90.40;;;;;;615644;234;26568;-68
2022/04/26 06:06:00;;;;;;;3.95;3.35;;;9.20;90.40;;;;;;615581;234;26847;-68
2022/04/26 06:08:27;;;;;;;5.57;3.95;;;9.30;89.70;;;;;;616010;231;26592;-67
2022/04/26 06:10:54;;;;;;;4.60;3.58;;;9.40;88.60;;;;;;617245;233;26762;-67
2022/04/26 06:13:22;;;;;;;6.18;3.78;;;9.50;86.70;;;;;;616742;232;26609;-67
2022/04/26 06:15:50;;;;;;;3.35;3.03;;;9.70;87.40;;;;;;616530;232;26567;-68
2022/04/26 06:18:17;;;;;;;4.97;3.10;;;9.60;87.30;;;;;;616358;232;26584;-68
2022/04/26 06:20:44;;;;;;;4.15;3.67;;;9.90;87.20;;;;;;616259;233;26531;-68
2022/04/26 06:23:11;;;;;;;3.45;3.15;;;10.00;87.80;;;;;;616255;233;26769;-69
2022/04/26 06:25:39;;;;;;;8.00;4.05;;;10.20;83.20;;;;;;616276;232;26561;-68
2022/04/26 06:28:07;;;;;;;3.42;3.12;;;10.30;80.00;;;;;;616196;231;26888;-68
2022/04/26 06:30:33;;;;;;;4.72;3.20;;;10.40;86.20;;;;;;616311;231;26793;-67
2022/04/26 06:33:00;;;;;;;3.17;2.92;;;10.50;82.30;;;;;;614042;233;26571;-70
2022/04/26 06:35:28;;;;;;;2.78;2.50;;;10.70;79.50;;;;;;616141;231;26624;-68
2022/04/26 06:37:58;;;;;;;3.72;3.00;;;10.70;87.00;;;;;;614877;231;26637;-68
2022/04/26 06:40:25;;;;;;;3.03;2.80;;;10.80;81.00;;;;;;622277;230;26558;-69
2022/04/26 06:42:52;;;;;;;3.15;2.60;;;10.80;81.50;;;;;;616515;229;26564;-69
2022/04/26 06:45:19;;;;;;;2.92;2.72;;;10.80;73.50;;;;;;614673;231;26846;-69
2022/04/26 06:47:49;;;;;;;3.25;2.92;;;11.10;70.60;;;;;;614637;231;26580;-69
2022/04/26 06:50:15;;;;;;;2.85;2.65;;;11.20;71.50;;;;;;615284;231;26543;-69
2022/04/26 06:52:43;;;;;;;3.05;2.55;;;11.30;82.20;;;;;;615927;231;26633;-69
2022/04/26 06:55:11;;;;;;;3.08;2.60;;;11.40;76.00;;;;;;619920;231;26620;-69
2022/04/26 06:57:38;;;;;;;3.03;2.80;;;11.30;76.40;;;;;;614494;231;26911;-68
2022/04/26 07:00:06;;;;;;;2.62;2.25;;;11.50;76.40;;;;;;616720;231;26539;-68
2022/04/26 07:02:33;;;;;;;2.80;2.60;;;11.60;77.30;;;;;;615068;231;26547;-68
2022/04/26 07:05:01;;;;;;;3.53;2.83;;;11.70;78.90;;;;;;616281;231;26824;-68
2022/04/26 07:07:28;;;;;;;2.50;2.30;;;11.70;67.10;;;;;;616944;231;26748;-68
2022/04/26 07:09:55;;;;;;;2.30;2.10;;;11.70;67.40;;;;;;615626;231;27105;-69
2022/04/26 07:12:23;;;;;;;4.43;2.30;;;11.70;67.40;;;;;;614886;231;26570;-69
2022/04/26 07:14:51;;;;;;;3.45;2.20;;;11.80;63.10;;;;;;615911;231;26563;-69
2022/04/26 07:17:19;;;;;;;2.33;2.12;;;11.80;65.20;;;;;;618707;231;26578;-68
2022/04/26 07:19:47;;;;;;;2.62;2.37;;;11.90;64.70;;;;;;614719;231;26578;-68
2022/04/26 07:22:14;;;;;;;4.20;2.92;;;11.90;65.70;;;;;;618358;230;26604;-69
2022/04/26 07:24:41;;;;;;;2.90;2.40;;;11.90;64.10;;;;;;618784;230;26621;-69
2022/04/26 07:27:10;;;;;;;2.87;2.05;;;12.00;68.70;;;;;;617064;231;26829;-68
2022/04/26 07:29:40;;;;;;;2.00;1.90;;;11.90;69.10;;;;;;615224;231;26940;-68
2022/04/26 07:32:04;;;;;;;2.97;1.87;;;12.10;69.80;;;;;;616096;231;26600;-69
2022/04/26 07:34:32;;;;;;;3.45;2.50;;;12.10;66.50;;;;;;618808;228;26600;-69
2022/04/26 07:37:02;;;;;;;3.00;2.10;;;12.20;63.80;;;;;;616880;229;26626;-67
2022/04/26 07:39:29;;;;;;;2.30;2.10;;;12.20;71.70;;;;;;616067;231;26579;-67
2022/04/26 07:41:57;;;;;;;2.42;2.22;;;12.20;71.70;;;;;;614677;233;26620;-68
2022/04/26 07:44:24;;;;;;;2.47;1.90;;;12.30;69.90;;;;;;615686;231;26818;-68
2022/04/26 07:46:51;;;;;;;2.10;1.90;;;12.30;59.80;;;;;;617189;231;26596;-69
2022/04/26 07:49:20;;;;;;;1.95;1.77;;;12.30;62.90;;;;;;617060;231;26770;-68
2022/04/26 07:51:46;;;;;;;2.08;1.98;;;12.30;62.90;;;;;;615751;231;26548;-68
2022/04/26 07:54:15;;;;;;;2.00;1.80;;;12.40;64.20;;;;;;615990;231;26834;-68
2022/04/26 07:56:41;;;;;;;3.47;2.00;;;12.40;67.20;;;;;;613409;231;26811;-68
2022/04/26 07:59:08;;;;;;;1.80;1.70;;;12.40;65.60;;;;;;615579;233;26559;-68
2022/04/26 08:01:36;;;;;;;2.70;1.70;;;12.40;60.60;;;;;;613650;231;26584;-68
2022/04/26 08:04:04;;;;;;;2.17;1.98;;;12.50;60.10;;;;;;612419;234;26552;-68
2022/04/26 08:06:32;;;;;;;3.33;1.67;;;12.60;60.60;;;;;;612974;234;27203;-69
2022/04/26 08:08:59;;;;;;;2.20;1.75;;;12.60;60.40;;;;;;614462;233;26939;-69
2022/04/26 08:11:28;;;;;;;1.95;1.85;;;12.60;58.20;;;;;;617272;228;26613;-65
2022/04/26 08:13:53;;;;;;;2.65;2.00;;;12.70;57.90;;;;;;620974;231;26781;-65
2022/04/26 08:16:21;;;;;;;2.58;1.60;;;12.80;56.70;;;;;;616562;231;26581;-65
2022/04/26 08:18:49;;;;;;;1.77;1.67;;;12.80;64.90;;;;;;618507;231;26612;-65
2022/04/26 08:21:17;;;;;;;1.67;1.58;;;12.80;57.70;;;;;;613964;234;26560;-65
2022/04/26 08:28:51;;;;;;;1.90;1.65;;;13.00;61.20;;;;;;623786;230;26625;-64
2022/04/26 08:31:18;;;;;;;2.35;1.60;;;13.00;57.70;;;;;;614253;231;26837;-64
2022/04/26 08:33:45;;;;;;;1.83;1.70;;;13.00;56.40;;;;;;614980;231;26609;-64
2022/04/26 08:36:15;;;;;;;1.70;1.60;;;13.00;58.60;;;;;;620944;231;26812;-63
2022/04/26 08:38:42;;;;;;;2.40;2.20;;;13.10;56.10;;;;;;621815;231;26565;-64
2022/04/26 08:41:09;;;;;;;1.75;1.65;;;13.10;60.30;;;;;;618090;231;26642;-64
2022/04/26 08:43:37;;;;;;;2.75;1.90;;;13.20;58.70;;;;;;618404;231;26621;-63
2022/04/26 08:46:04;;;;;;;1.80;1.70;;;13.20;58.60;;;;;;614436;231;26843;-64
2022/04/26 08:51:04;;;;;;;1.87;1.40;;;13.30;57.50;;;;;;613126;233;26620;-64
2022/04/26 08:53:32;;;;;;;2.83;1.75;;;13.30;55.10;;;;;;612691;233;26563;-64
2022/04/26 08:56:01;;;;;;;2.12;1.70;;;13.40;56.40;;;;;;612710;233;26564;-64
2022/04/26 08:58:31;;;;;;;1.90;1.80;;;13.40;53.60;;;;;;615768;232;26656;-64
2022/04/26 09:01:18;;;;;;;2.08;1.98;;;13.40;53.00;;;;;;617698;230;26613;-64
2022/04/26 09:03:58;;;;;;;2.78;1.67;;;13.40;53.00;;;;;;616006;230;26559;-67
2022/04/26 09:06:36;;;;;;;3.10;1.62;;;13.40;59.80;;;;;;614078;233;26569;-64
2022/04/26 09:09:07;;;;;;;80.45;17.17;;;13.40;59.80;;;;;;616932;231;26635;-63
2022/04/26 09:11:34;;;;;;;190.15;37.10;;;13.50;57.30;;;;;;616501;231;26813;-66
2022/04/26 09:14:02;;;;;;;1536.55;179.70;;;13.50;57.60;;;;;;618897;231;26617;-65
2022/04/26 09:16:30;;;;;;;1996.10;182.27;;;13.50;56.30;;;;;;614820;231;26652;-66
2022/04/26 09:18:58;;;;;;;122.55;27.67;;;13.60;57.10;;;;;;618458;231;26623;-65
2022/04/26 09:21:27;;;;;;;38.38;9.88;;;13.60;56.30;;;;;;616960;231;26629;-64
2022/04/26 09:23:57;;;;;;;108.05;21.20;;;13.60;56.30;;;;;;615285;231;26533;-65
2022/04/26 09:26:25;;;;;;;71.72;16.25;;;13.70;57.70;;;;;;616243;231;26562;-64
2022/04/26 09:28:51;;;;;;;9.70;4.10;;;13.70;54.60;;;;;;616003;231;26572;-64
2022/04/26 09:31:23;;;;;;;20.85;7.22;;;13.80;53.90;;;;;;615558;233;26520;-65
2022/04/26 09:33:52;;;;;;;15.63;4.90;;;13.70;53.80;;;;;;613394;231;26918;-65
2022/04/26 09:36:18;;;;;;;5.22;2.45;;;13.70;58.10;;;;;;612483;234;26617;-65
2022/04/26 09:38:51;;;;;;;4.55;2.47;;;13.80;57.20;;;;;;615651;234;26598;-65
2022/04/26 09:41:18;;;;;;;10.10;3.33;;;13.80;56.20;;;;;;614010;234;26619;-65
2022/04/26 09:43:56;;;;;;;3.35;2.33;;;13.90;61.20;;;;;;615304;231;26562;-65
2022/04/26 09:46:24;;;;;;;1.65;1.40;;;13.90;61.30;;;;;;620219;231;27157;-64
2022/04/26 09:48:51;;;;;;;5.10;2.28;;;14.10;58.80;;;;;;613281;234;26548;-64
2022/04/26 09:51:19;;;;;;;3.10;1.70;;;14.10;56.40;;;;;;613601;232;26565;-64
2022/04/26 09:53:47;;;;;;;8.00;3.12;;;14.10;55.90;;;;;;613076;232;26629;-64
2022/04/26 09:56:15;;;;;;;3.08;2.47;;;13.90;54.80;;;;;;620772;230;26627;-66
2022/04/26 09:58:42;;;;;;;8.98;2.83;;;13.90;54.80;;;;;;622291;230;26619;-65
2022/04/26 10:01:10;;;;;;;7.87;2.80;;;13.80;54.60;;;;;;616498;233;26566;-66
2022/04/26 10:03:37;;;;;;;2.92;1.92;;;13.80;54.20;;;;;;614424;231;26818;-65
2022/04/26 10:06:05;;;;;;;4.47;1.73;;;13.70;55.50;;;;;;620643;230;26551;-64
2022/04/26 10:08:32;;;;;;;5.00;2.47;;;13.80;56.40;;;;;;623009;230;26544;-64
2022/04/26 10:11:00;;;;;;;5.95;2.67;;;13.90;58.10;;;;;;618302;231;26960;-64
2022/04/26 10:13:32;;;;;;;3.08;2.05;;;13.90;53.40;;;;;;622928;230;26564;-64
2022/04/26 10:15:59;;;;;;;1.73;1.58;;;13.90;57.80;;;;;;617633;230;26627;-64
2022/04/26 10:18:44;;;;;;;5.28;2.58;;;14.00;58.70;;;;;;613252;232;26839;-64
2022/04/26 10:21:12;;;;;;;1.80;1.40;;;14.10;54.30;;;;;;614176;233;26559;-64
2022/04/26 10:24:06;;;;;;;5.60;2.47;;;14.30;54.70;;;;;;611091;231;26611;-64
2022/04/26 10:26:34;;;;;;;1.95;1.60;;;14.20;59.50;;;;;;620094;231;26632;-64
2022/04/26 10:29:02;;;;;;;1.58;1.48;;;14.20;62.10;;;;;;623177;231;26560;-65
2022/04/26 10:31:38;;;;;;;1.23;1.20;;;14.30;59.50;;;;;;622699;231;26552;-66
2022/04/26 10:34:20;;;;;;;1.40;1.40;;;14.30;59.60;;;;;;623481;230;26564;-64
2022/04/26 10:36:46;;;;;;;2.67;1.60;;;14.40;60.30;;;;;;623225;231;26580;-65
2022/04/26 10:39:31;;;;;;;3.28;1.85;;;14.60;57.70;;;;;;623731;230;26557;-64
2022/04/26 10:41:58;;;;;;;1.48;1.37;;;14.60;57.60;;;;;;623733;230;26771;-63
2022/04/26 10:44:27;;;;;;;4.40;1.83;;;14.70;53.50;;;;;;623661;230;26558;-64
2022/04/26 10:47:24;;;;;;;2.95;1.92;;;14.70;53.50;;;;;;623754;231;26596;-63
2022/04/26 10:49:51;;;;;;;3.47;2.10;;;14.70;54.80;;;;;;623738;231;26793;-64
2022/04/26 10:52:35;;;;;;;1.37;1.37;;;14.70;54.80;;;;;;623783;230;26513;-64
2022/04/26 10:55:03;;;;;;;2.53;1.80;;;14.70;58.90;;;;;;624274;228;26559;-63
2022/04/26 10:57:34;;;;;;;2.62;2.00;;;14.80;56.10;;;;;;625218;226;26833;-65
2022/04/26 11:00:03;;;;;;;3.33;2.08;;;14.80;52.60;;;;;;624822;230;26548;-65
2022/04/26 11:02:31;;;;;;;4.20;2.35;;;14.80;52.70;;;;;;624766;230;26837;-64
2022/04/26 11:04:59;;;;;;;3.15;1.90;;;14.80;55.60;;;;;;624447;230;26823;-64
2022/04/26 11:07:27;;;;;;;1.67;1.50;;;14.90;58.80;;;;;;624341;230;26598;-64
2022/04/26 11:09:54;;;;;;;1.62;1.35;;;15.00;58.20;;;;;;624274;230;26927;-64
2022/04/26 11:12:21;;;;;;;3.80;2.40;;;15.10;52.40;;;;;;624353;230;26557;-65
2022/04/26 11:14:48;;;;;;;1.80;1.70;;;15.20;52.40;;;;;;623997;229;26598;-65
2022/04/26 11:17:16;;;;;;;3.80;1.52;;;15.10;50.20;;;;;;624112;230;26833;-64
2022/04/26 11:19:57;;;;;;;2.05;1.87;;;15.00;50.20;;;;;;623948;230;26627;-63
2022/04/26 11:22:24;;;;;;;3.53;1.83;;;15.00;50.80;;;;;;624072;230;26594;-64
2022/04/26 11:30:11;;;;;;;2.95;1.67;;;15.30;52.10;;;;;;624095;230;26579;-64
2022/04/26 11:32:38;;;;;;;1.42;1.42;;;15.40;50.20;;;;;;623809;230;26552;-64
2022/04/26 11:35:07;;;;;;;1.15;1.15;;;15.60;56.00;;;;;;623723;230;26560;-64
2022/04/26 11:37:34;;;;;;;1.40;1.30;;;15.60;55.80;;;;;;623839;227;26590;-64
2022/04/26 11:40:03;;;;;;;1.52;1.42;;;15.70;50.70;;;;;;622615;231;26801;-63
2022/04/26 11:42:28;;;;;;;1.80;1.48;;;15.90;53.60;;;;;;623595;231;26565;-65
2022/04/26 11:44:58;;;;;;;2.70;2.00;;;15.90;54.00;;;;;;623119;231;26929;-65
2022/04/26 11:47:36;;;;;;;2.08;1.48;;;16.00;51.10;;;;;;623700;231;26554;-65
2022/04/26 11:50:08;;;;;;;2.42;1.80;;;15.90;51.90;;;;;;623487;231;26795;-64
2022/04/26 11:52:35;;;;;;;1.92;1.83;;;15.80;51.00;;;;;;623783;231;26564;-64
2022/04/26 11:55:05;;;;;;;1.87;1.75;;;15.50;52.40;;;;;;623756;231;26553;-64
2022/04/26 11:57:32;;;;;;;1.85;1.75;;;15.40;50.50;;;;;;623709;231;26648;-64
2022/04/26 12:00:00;;;;;;;1.60;1.50;;;15.30;52.30;;;;;;623749;230;26564;-64
2022/04/26 12:02:29;;;;;;;1.52;1.42;;;15.20;53.40;;;;;;623760;231;26564;-63
2022/04/26 12:04:55;;;;;;;1.50;1.40;;;15.20;53.50;;;;;;623600;231;26550;-65
2022/04/26 12:07:22;;;;;;;1.45;1.35;;;15.30;52.00;;;;;;624853;228;26626;-65
2022/04/26 12:09:49;;;;;;;1.20;1.20;;;15.50;53.40;;;;;;624988;229;27202;-65
2022/04/26 12:12:16;;;;;;;1.20;1.20;;;15.70;52.90;;;;;;624688;230;26636;-65
2022/04/26 12:14:44;;;;;;;1.80;1.60;;;15.80;55.50;;;;;;624520;230;26848;-64
2022/04/26 12:17:18;;;;;;;1.50;1.40;;;15.80;53.10;;;;;;623977;230;26653;-65
2022/04/26 12:19:50;;;;;;;1.90;1.80;;;15.90;48.30;;;;;;624621;230;26808;-65
2022/04/26 12:22:12;;;;;;;2.05;1.85;;;15.90;48.20;;;;;;624417;229;26890;-64
2022/04/26 12:24:46;;;;;;;2.25;1.67;;;15.90;50.20;;;;;;624290;230;26597;-63
2022/04/26 12:27:14;;;;;;;2.50;1.50;;;16.30;46.80;;;;;;624018;230;26633;-64
2022/04/26 12:29:43;;;;;;;1.80;1.70;;;16.50;46.50;;;;;;624057;230;26619;-64
2022/04/26 12:32:12;;;;;;;2.03;1.90;;;16.50;46.50;;;;;;624069;230;26557;-64
2022/04/26 12:35:01;;;;;;;1.58;1.48;;;16.60;46.20;;;;;;623761;230;26552;-64
2022/04/26 12:37:29;;;;;;;1.52;1.42;;;17.00;46.00;;;;;;623616;230;26877;-64
2022/04/26 12:39:58;;;;;;;1.25;1.23;;;17.40;47.20;;;;;;624124;229;26549;-63
2022/04/26 12:42:30;;;;;;;1.42;1.40;;;17.80;49.50;;;;;;623927;229;26568;-63
2022/04/26 12:44:57;;;;;;;1.45;1.35;;;17.90;48.60;;;;;;623506;231;26525;-64
2022/04/26 12:52:41;;;;;;;4.10;1.20;;;18.10;47.40;;;;;;623749;231;26818;-64
2022/04/26 12:55:08;;;;;;;1.35;1.23;;;18.60;49.10;;;;;;623716;230;26557;-64
2022/04/26 12:57:46;;;;;;;2.05;1.40;;;19.40;46.70;;;;;;623700;230;26705;-64
2022/04/26 13:00:16;;;;;;;1.70;1.50;;;21.10;45.40;;;;;;623712;231;26552;-65
2022/04/26 13:02:44;;;;;;;1.17;1.00;;;21.60;52.50;;;;;;623728;231;26556;-64
2022/04/26 13:05:12;;;;;;;1.17;1.08;;;22.20;47.00;;;;;;623752;231;26561;-64
2022/04/26 13:07:39;;;;;;;1.87;1.30;;;22.60;44.40;;;;;;623760;231;26592;-63
2022/04/26 13:10:07;;;;;;;1.45;1.35;;;22.60;44.80;;;;;;623770;231;26597;-63
2022/04/26 13:12:34;;;;;;;2.28;1.70;;;22.90;46.80;;;;;;623774;230;26565;-63
2022/04/26 13:15:03;;;;;;;1.65;1.55;;;23.20;39.00;;;;;;623742;231;26576;-63
2022/04/26 13:17:31;;;;;;;1.80;1.70;;;23.40;45.80;;;;;;623778;231;26828;-64
2022/04/26 13:19:58;;;;;;;1.62;1.52;;;24.00;45.00;;;;;;625506;228;26556;-64
2022/04/26 13:22:25;;;;;;;1.40;1.33;;;24.50;40.10;;;;;;624927;226;26810;-63
2022/04/26 13:24:52;;;;;;;1.27;1.17;;;24.70;41.20;;;;;;624695;230;26609;-63
2022/04/26 13:27:19;;;;;;;1.15;1.15;;;25.00;39.40;;;;;;624526;230;26633;-63
2022/04/26 13:29:49;;;;;;;2.00;1.50;;;25.20;36.00;;;;;;624342;230;26545;-64
2022/04/26 13:32:15;;;;;;;1.50;1.40;;;25.70;35.90;;;;;;617823;228;26623;-64
2022/04/26 13:34:45;;;;;;;1.25;1.25;;;25.90;34.90;;;;;;613915;231;26600;-64
2022/04/26 13:37:12;;;;;;;1.50;1.30;;;25.80;34.80;;;;;;617674;230;26685;-64
2022/04/26 13:39:40;;;;;;;1.50;1.30;;;26.30;37.30;;;;;;614188;230;27181;-64
2022/04/26 13:42:09;;;;;;;1.92;1.45;;;24.90;40.90;;;;;;614201;231;26638;-64
2022/04/26 13:44:35;;;;;;;1.70;1.60;;;23.60;37.70;;;;;;616213;230;26549;-64
2022/04/26 13:47:06;;;;;;;1.52;1.37;;;22.40;41.70;;;;;;617261;230;26577;-64
2022/04/26 13:49:34;;;;;;;1.70;1.60;;;22.30;42.10;;;;;;613652;230;26844;-65
2022/04/26 13:51:59;;;;;;;1.48;1.37;;;21.80;40.70;;;;;;614618;231;26623;-64
2022/04/26 13:54:27;;;;;;;1.83;1.17;;;21.30;42.50;;;;;;617855;230;26915;-64
2022/04/26 13:56:54;;;;;;;1.20;1.20;;;20.90;40.50;;;;;;614374;231;26646;-65
2022/04/26 13:59:23;;;;;;;1.48;1.37;;;20.50;41.10;;;;;;614772;233;26789;-65
2022/04/26 14:01:50;;;;;;;1.60;1.52;;;20.30;43.00;;;;;;614270;231;26604;-64
2022/04/26 14:04:18;;;;;;;1.40;1.30;;;20.30;40.40;;;;;;613767;231;26576;-65
2022/04/26 14:06:46;;;;;;;1.30;1.30;;;21.60;42.50;;;;;;613670;231;26819;-65
2022/04/26 14:09:13;;;;;;;2.05;1.30;;;25.10;42.40;;;;;;614837;234;26548;-65
2022/04/26 14:11:40;;;;;;;1.33;1.30;;;23.50;37.80;;;;;;613176;233;26847;-65
2022/04/26 14:21:47;;;;;;;1.40;1.30;;;19.40;40.30;;;;;;613607;229;26581;-64
2022/04/26 14:24:14;;;;;;;1.30;1.20;;;19.20;40.30;;;;;;618191;231;26612;-64
2022/04/26 14:26:42;;;;;;;2.15;1.60;;;18.90;40.40;;;;;;614306;231;26636;-64
2022/04/26 14:29:10;;;;;;;1.40;1.40;;;18.80;40.80;;;;;;616497;231;26585;-64
2022/04/26 14:31:38;;;;;;;1.50;1.35;;;18.80;40.90;;;;;;621866;228;26566;-63
2022/04/26 14:34:05;;;;;;;1.30;1.30;;;18.60;41.90;;;;;;617776;231;26611;-63
2022/04/26 14:36:32;;;;;;;3.05;1.60;;;18.50;39.40;;;;;;615483;230;26576;-64
2022/04/26 14:39:00;;;;;;;4.40;1.52;;;18.30;45.40;;;;;;617739;230;26599;-64
2022/04/26 14:41:27;;;;;;;1.50;1.40;;;18.30;45.20;;;;;;615215;233;26787;-64
2022/04/26 14:43:55;;;;;;;1.33;1.33;;;18.20;41.50;;;;;;613856;233;26634;-64
2022/04/26 14:46:22;;;;;;;2.05;1.60;;;18.00;41.10;;;;;;618613;231;26837;-64
2022/04/26 14:48:50;;;;;;;2.80;1.37;;;18.00;41.10;;;;;;613956;231;26795;-64
2022/04/26 14:51:17;;;;;;;1.90;1.40;;;18.10;40.70;;;;;;615229;233;26620;-64
2022/04/26 14:53:45;;;;;;;2.20;1.30;;;18.00;40.60;;;;;;615679;230;26807;-64
2022/04/26 14:56:13;;;;;;;3.17;1.73;;;18.00;43.70;;;;;;615555;233;26603;-64
2022/04/26 14:58:41;;;;;;;1.42;1.42;;;18.20;42.30;;;;;;619998;231;26583;-64
2022/04/26 15:01:10;;;;;;;1.98;1.40;;;18.50;43.30;;;;;;615735;233;26610;-65
2022/04/26 15:03:36;;;;;;;1.08;1.08;;;18.50;43.60;;;;;;614739;232;26597;-64
2022/04/26 15:06:03;;;;;;;1.48;1.40;;;18.80;43.70;;;;;;614137;233;26540;-64
2022/04/26 15:11:17;;;;;;;1.58;1.50;;;19.10;40.90;;;;;;613693;227;26628;-63
2022/04/26 15:18:52;;;;;;;1.25;1.15;;;18.60;41.10;;;;;;618241;229;26566;-69
2022/04/26 15:21:20;;;;;;;2.47;1.30;;;18.60;40.90;;;;;;619461;231;26685;-70
2022/04/26 15:23:47;;;;;;;3.35;1.55;;;18.60;41.40;;;;;;616006;231;26803;-69
2022/04/26 15:26:15;;;;;;;1.50;1.40;;;18.10;41.70;;;;;;615381;234;26566;-70
2022/04/26 15:28:42;;;;;;;1.85;1.33;;;18.10;41.20;;;;;;615708;234;26652;-69
2022/04/26 15:31:10;;;;;;;1.98;1.70;;;17.80;40.40;;;;;;615739;234;26815;-69
2022/04/26 15:33:38;;;;;;;1.65;1.27;;;17.60;40.40;;;;;;615619;234;26559;-69
2022/04/26 15:36:04;;;;;;;1.23;1.20;;;17.60;41.00;;;;;;615679;234;27100;-69
2022/04/26 15:38:33;;;;;;;1.27;1.20;;;17.70;43.10;;;;;;615741;234;26600;-69
2022/04/26 15:41:05;;;;;;;1.60;1.50;;;17.90;41.80;;;;;;615810;231;27261;-69
2022/04/26 15:43:29;;;;;;;1.98;1.87;;;18.00;43.90;;;;;;616925;233;26559;-69
2022/04/26 15:45:56;;;;;;;2.80;1.30;;;18.00;41.60;;;;;;616740;232;26576;-69
2022/04/26 15:48:24;;;;;;;1.12;1.12;;;18.00;41.90;;;;;;616550;228;26586;-69
2022/04/26 15:50:52;;;;;;;1.42;1.33;;;17.90;44.90;;;;;;616481;232;26563;-69
2022/04/26 15:53:20;;;;;;;1.40;1.30;;;17.80;41.70;;;;;;616201;233;26605;-69
2022/04/26 15:55:47;;;;;;;1.40;1.35;;;17.80;41.70;;;;;;615771;230;26571;-68
2022/04/26 15:58:14;;;;;;;1.87;1.40;;;17.70;42.70;;;;;;615932;230;26604;-66
2022/04/26 16:00:41;;;;;;;1.50;1.40;;;17.60;44.30;;;;;;617564;230;26837;-68
2022/04/26 16:03:09;;;;;;;1.40;1.30;;;17.40;45.50;;;;;;621156;231;26555;-69
2022/04/26 16:05:36;;;;;;;1.70;1.60;;;17.40;43.60;;;;;;615727;231;26801;-68
2022/04/26 16:08:03;;;;;;;2.15;1.60;;;17.20;42.90;;;;;;617673;230;26578;-69
2022/04/26 16:20:42;;;;;;;1.75;1.65;;;17.00;44.60;;;;;;613603;233;26544;-68
2022/04/26 16:23:09;;;;;;;1.35;1.23;;;17.10;44.00;;;;;;613817;234;26790;-68
2022/04/26 16:25:38;;;;;;;1.62;1.52;;;17.30;43.90;;;;;;618042;230;26596;-68
2022/04/26 16:28:06;;;;;;;1.37;1.27;;;17.20;43.10;;;;;;602273;235;26632;-68
2022/04/26 16:30:34;;;;;;;1.73;1.30;;;17.20;43.80;;;;;;612264;233;26613;-68
2022/04/26 16:33:01;;;;;;;1.25;1.25;;;17.20;43.40;;;;;;615661;231;26624;-69
2022/04/26 16:35:29;;;;;;;1.65;1.55;;;17.20;42.10;;;;;;616059;231;26630;-68
2022/04/26 16:37:56;;;;;;;2.70;1.65;;;17.00;42.40;;;;;;615841;231;26862;-68
2022/04/26 16:40:23;;;;;;;1.60;1.50;;;16.90;42.90;;;;;;614845;231;26533;-68
2022/04/26 16:42:50;;;;;;;1.60;1.50;;;16.80;42.70;;;;;;613070;231;26826;-68
2022/04/26 16:45:17;;;;;;;1.67;1.58;;;16.70;42.60;;;;;;617253;231;26565;-68
2022/04/26 16:47:45;;;;;;;1.85;1.58;;;16.60;43.10;;;;;;615991;231;26875;-68
2022/04/26 16:50:12;;;;;;;1.80;1.70;;;16.50;43.00;;;;;;614961;230;26555;-68
2022/04/26 16:52:39;;;;;;;1.65;1.55;;;16.50;45.20;;;;;;616527;231;26808;-69
2022/04/26 16:55:06;;;;;;;1.92;1.83;;;16.50;43.10;;;;;;614677;232;26635;-68
2022/04/26 16:57:33;;;;;;;1.80;1.70;;;16.50;43.70;;;;;;615014;231;26991;-68
2022/04/26 17:00:01;;;;;;;2.60;1.70;;;16.40;42.80;;;;;;614318;230;26560;-68
2022/04/26 17:02:30;;;;;;;1.62;1.52;;;16.30;42.70;;;;;;617356;230;27103;-68
2022/04/26 17:04:55;;;;;;;1.67;1.58;;;16.20;43.60;;;;;;613975;230;26604;-68
2022/04/26 17:07:25;;;;;;;1.77;1.67;;;16.30;43.80;;;;;;616163;230;26608;-69
2022/04/26 17:09:50;;;;;;;2.25;1.80;;;16.20;44.20;;;;;;615060;231;26588;-69
2022/04/26 17:12:18;;;;;;;1.42;1.37;;;16.20;44.20;;;;;;618081;230;26516;-68
2022/04/26 17:14:45;;;;;;;2.55;1.67;;;16.20;44.10;;;;;;616679;231;26530;-69